createdAt,value
2022-12-04T00:02:20.154Z,100358.69
2022-12-04T00:04:48.148Z,100365.88
2022-12-04T00:07:16.111Z,100321.66
2022-12-04T00:09:44.544Z,100351.13
2022-12-04T00:12:12.472Z,100345.91
2022-12-04T00:15:16.586Z,100342.41
2022-12-04T00:17:29.920Z,100355.31
2022-12-04T00:19:57.891Z,100341.59
2022-12-04T00:22:27.612Z,100332.72
2022-12-04T00:24:55.485Z,100358.84
2022-12-04T00:27:27.123Z,100326.88
2022-12-04T00:29:56.872Z,100363.34
2022-12-04T00:32:27.720Z,100352.19
2022-12-04T00:34:55.681Z,100372.59
2022-12-04T00:37:23.663Z,100378.59
2022-12-04T00:39:52.637Z,100376.94
2022-12-04T00:42:20.819Z,100355.34
2022-12-04T00:44:48.969Z,100376.44
2022-12-04T00:47:19.608Z,100378.41
2022-12-04T00:49:47.807Z,100371.38
2022-12-04T00:52:16.177Z,100369.06
2022-12-04T00:54:44.235Z,100367.03
2022-12-04T00:57:12.474Z,100372.41
2022-12-04T00:59:40.747Z,100378.78
2022-12-04T01:02:08.982Z,100368.03
2022-12-04T01:04:38.298Z,100371.56
2022-12-04T01:07:06.502Z,100364.97
2022-12-04T01:09:34.940Z,100360.81
2022-12-04T01:12:02.853Z,100371.22
2022-12-04T01:14:30.773Z,100341.06
2022-12-04T01:16:58.849Z,100348.03
2022-12-04T01:19:26.775Z,100341.19
2022-12-04T01:21:56.352Z,100340.00
2022-12-04T01:24:24.279Z,100309.88
2022-12-04T01:26:52.331Z,100344.22
2022-12-04T01:29:20.180Z,100306.75
2022-12-04T01:31:48.235Z,100328.31
2022-12-04T01:34:16.220Z,100312.81
2022-12-04T01:36:44.121Z,100322.00
2022-12-04T01:39:13.590Z,100300.25
2022-12-04T01:41:41.689Z,100317.00
2022-12-04T01:44:17.169Z,100322.00
2022-12-04T01:46:46.445Z,100318.16
2022-12-04T01:49:18.638Z,100324.53
2022-12-04T01:51:49.717Z,100286.88
2022-12-04T01:54:28.479Z,100332.09
2022-12-04T01:57:00.839Z,100330.38
2022-12-04T01:59:34.620Z,100342.94
2022-12-04T02:02:05.890Z,100324.72
2022-12-04T02:04:35.444Z,100341.09
2022-12-04T02:07:03.807Z,100326.00
2022-12-04T02:09:34.451Z,100332.22
2022-12-04T02:12:09.573Z,100319.34
2022-12-04T02:14:45.737Z,100322.19
2022-12-04T02:17:21.644Z,100321.66
2022-12-04T02:20:01.404Z,100340.75
2022-12-04T02:22:43.504Z,100345.13
2022-12-04T02:25:23.559Z,100356.00
2022-12-04T02:28:13.872Z,100343.25
2022-12-04T02:30:44.294Z,100344.31
2022-12-04T02:33:19.142Z,100344.31
2022-12-04T02:35:51.194Z,100335.06
2022-12-04T02:38:23.712Z,100339.91
2022-12-04T02:40:58.139Z,100341.03
2022-12-04T02:43:31.357Z,100354.13
2022-12-04T02:46:04.019Z,100360.88
2022-12-04T02:48:35.361Z,100355.19
2022-12-04T02:51:07.861Z,100361.88
2022-12-04T02:53:41.315Z,100345.44
2022-12-04T02:56:13.125Z,100355.53
2022-12-04T02:58:48.177Z,100312.81
2022-12-04T03:01:21.895Z,100342.63
2022-12-04T03:03:54.249Z,100315.84
2022-12-04T03:06:24.441Z,100319.50
2022-12-04T03:08:57.125Z,100338.06
2022-12-04T03:11:27.447Z,100339.38
2022-12-04T03:14:01.829Z,100329.31
2022-12-04T03:16:34.226Z,100334.47
2022-12-04T03:19:06.753Z,100297.53
2022-12-04T03:21:41.304Z,100318.28
2022-12-04T03:24:15.957Z,100329.47
2022-12-04T03:26:47.811Z,100331.69
2022-12-04T03:29:21.586Z,100331.25
2022-12-04T03:31:55.562Z,100339.59
2022-12-04T03:34:29.235Z,100334.44
2022-12-04T03:37:02.838Z,100304.31
2022-12-04T03:39:39.158Z,100278.97
2022-12-04T03:42:14.217Z,100339.28
2022-12-04T03:44:48.566Z,100336.28
2022-12-04T03:47:21.917Z,100334.44
2022-12-04T03:49:58.523Z,100337.13
2022-12-04T03:52:33.414Z,100327.88
2022-12-04T03:55:05.687Z,100337.09
2022-12-04T03:57:40.194Z,100330.72
2022-12-04T04:00:13.072Z,100319.63
2022-12-04T04:02:45.963Z,100322.00
2022-12-04T04:05:15.126Z,100325.88
2022-12-04T04:07:47.861Z,100318.84
2022-12-04T04:10:18.056Z,100324.69
2022-12-04T04:13:11.983Z,100324.50
2022-12-04T04:16:03.698Z,100312.38
2022-12-04T04:18:50.987Z,100310.13
2022-12-04T04:21:41.730Z,100312.97
2022-12-04T04:24:17.615Z,100302.72
2022-12-04T04:26:47.718Z,100292.16
2022-12-04T04:29:16.418Z,100302.38
2022-12-04T04:31:51.380Z,100297.19
2022-12-04T04:34:25.886Z,100302.25
2022-12-04T04:37:00.514Z,100287.84
2022-12-04T04:39:36.279Z,100305.28
2022-12-04T04:42:12.340Z,100308.44
2022-12-04T04:44:46.050Z,100304.09
2022-12-04T04:47:22.286Z,100308.31
2022-12-04T04:49:54.504Z,100311.97
2022-12-04T04:52:24.688Z,100318.16
2022-12-04T04:54:52.597Z,100309.81
2022-12-04T04:57:28.428Z,100306.28
2022-12-04T04:59:56.889Z,100321.38
2022-12-04T05:02:28.205Z,100327.72
2022-12-04T05:04:56.702Z,100300.97
2022-12-04T05:07:24.578Z,100317.03
2022-12-04T05:09:52.515Z,100297.09
2022-12-04T05:12:20.466Z,100298.28
2022-12-04T05:14:48.842Z,100308.28
2022-12-04T05:17:17.218Z,100312.47
2022-12-04T05:19:56.869Z,100309.31
2022-12-04T05:22:27.694Z,100320.69
2022-12-04T05:24:55.859Z,100283.88
2022-12-04T05:27:24.703Z,100284.19
2022-12-04T05:29:54.112Z,100304.44
2022-12-04T05:32:22.818Z,100301.66
2022-12-04T05:34:53.438Z,100293.78
2022-12-04T05:37:22.080Z,100290.09
2022-12-04T05:39:50.199Z,100301.94
2022-12-04T05:42:18.496Z,100301.78
2022-12-04T05:44:46.526Z,100277.50
2022-12-04T05:47:14.769Z,100287.56
2022-12-04T05:49:42.754Z,100299.63
2022-12-04T05:52:12.225Z,100305.31
2022-12-04T05:54:40.630Z,100315.03
2022-12-04T05:57:10.000Z,100320.72
2022-12-04T05:59:38.149Z,100324.56
2022-12-04T06:02:06.128Z,100314.19
2022-12-04T06:04:34.249Z,100318.72
2022-12-04T06:07:02.069Z,100318.53
2022-12-04T06:09:31.308Z,100327.78
2022-12-04T06:11:59.491Z,100326.25
2022-12-04T06:14:27.419Z,100307.97
2022-12-04T06:16:55.424Z,100305.81
2022-12-04T06:19:24.465Z,100330.09
2022-12-04T06:21:54.419Z,100334.97
2022-12-04T06:24:23.920Z,100329.25
2022-12-04T06:27:26.066Z,100325.72
2022-12-04T06:29:45.688Z,100295.94
2022-12-04T06:32:18.008Z,100331.44
2022-12-04T06:34:51.928Z,100333.44
2022-12-04T06:37:20.313Z,100326.25
2022-12-04T06:39:48.740Z,100332.94
2022-12-04T06:42:18.461Z,100323.72
2022-12-04T06:44:46.647Z,100322.91
2022-12-04T06:47:14.826Z,100321.72
2022-12-04T06:49:47.084Z,100295.63
2022-12-04T06:52:15.869Z,100305.50
2022-12-04T06:54:44.202Z,100312.03
2022-12-04T06:57:12.223Z,100321.06
2022-12-04T06:59:41.601Z,100319.56
2022-12-04T07:02:10.597Z,100319.72
2022-12-04T07:04:38.551Z,100290.75
2022-12-04T07:07:06.454Z,100329.25
2022-12-04T07:09:34.381Z,100316.38
2022-12-04T07:12:02.720Z,100314.38
2022-12-04T07:14:30.610Z,100291.25
2022-12-04T07:17:01.588Z,100323.25
2022-12-04T07:19:30.895Z,100273.16
2022-12-04T07:21:59.163Z,100319.72
2022-12-04T07:24:27.612Z,100318.22
2022-12-04T07:26:55.530Z,100305.50
2022-12-04T07:29:26.309Z,100304.97
2022-12-04T07:31:54.522Z,100297.28
2022-12-04T07:34:23.917Z,100309.16
2022-12-04T07:36:57.826Z,100315.69
2022-12-04T07:39:29.449Z,100286.22
2022-12-04T07:41:57.529Z,100304.31
2022-12-04T07:44:25.776Z,100300.81
2022-12-04T07:46:53.717Z,100301.97
2022-12-04T07:49:23.541Z,100310.00
2022-12-04T07:51:51.444Z,100309.50
2022-12-04T07:54:19.643Z,100307.66
2022-12-04T07:56:47.527Z,100315.69
2022-12-04T07:59:15.332Z,100322.41
2022-12-04T08:01:43.240Z,100308.81
2022-12-04T08:04:12.018Z,100291.59
2022-12-04T08:06:41.692Z,100326.41
2022-12-04T08:09:21.346Z,100329.09
2022-12-04T08:11:49.329Z,100340.66
2022-12-04T08:14:17.311Z,100322.56
2022-12-04T08:16:49.663Z,100332.97
2022-12-04T08:19:20.405Z,100339.66
2022-12-04T08:21:49.740Z,100342.66
2022-12-04T08:24:17.860Z,100326.06
2022-12-04T08:26:45.994Z,100329.75
2022-12-04T08:29:13.863Z,100336.97
2022-12-04T08:31:41.826Z,100311.31
2022-12-04T08:34:13.097Z,100334.94
2022-12-04T08:43:27.488Z,100320.03
2022-12-04T08:46:41.141Z,100324.56
2022-12-04T08:52:35.967Z,100317.81
2022-12-04T08:55:17.325Z,100301.59
2022-12-04T08:57:50.149Z,100331.41
2022-12-04T09:00:20.763Z,100300.25
2022-12-04T09:02:52.109Z,100314.81
2022-12-04T09:05:21.786Z,100311.13
2022-12-04T09:07:50.577Z,100303.75
2022-12-04T09:10:20.449Z,100302.41
2022-12-04T09:12:48.530Z,100303.38
2022-12-04T09:15:16.492Z,100289.81
2022-12-04T09:17:44.676Z,100304.34
2022-12-04T09:20:14.973Z,100309.59
2022-12-04T09:23:02.709Z,100314.78
2022-12-04T09:25:33.738Z,100309.44
2022-12-04T09:28:02.887Z,100304.22
2022-12-04T09:30:33.199Z,100321.28
2022-12-04T09:33:03.706Z,100317.94
2022-12-04T09:35:31.445Z,100313.06
2022-12-04T09:37:59.251Z,100305.47
2022-12-04T09:40:37.211Z,100309.34
2022-12-04T09:43:17.245Z,100293.13
2022-12-04T09:45:49.742Z,100293.94
2022-12-04T09:48:20.886Z,100297.19
2022-12-04T09:50:50.086Z,100296.25
2022-12-04T09:53:23.721Z,100290.00
2022-12-04T09:55:56.330Z,100302.75
2022-12-04T09:58:29.816Z,100288.41
2022-12-04T10:00:58.515Z,100302.03
2022-12-04T10:03:29.535Z,100297.94
2022-12-04T10:06:06.273Z,100287.56
2022-12-04T10:08:37.233Z,100296.50
2022-12-04T10:11:13.724Z,100297.75
2022-12-04T10:13:57.930Z,100300.63
2022-12-04T10:16:34.584Z,100290.31
2022-12-04T10:19:09.879Z,100287.19
2022-12-04T10:21:49.658Z,100299.19
2022-12-04T10:24:27.223Z,100296.16
2022-12-04T10:26:59.775Z,100289.56
2022-12-04T10:29:32.314Z,100281.06
2022-12-04T10:32:14.899Z,100281.28
2022-12-04T10:34:45.963Z,100281.47
2022-12-04T10:37:15.685Z,100276.28
2022-12-04T10:39:49.314Z,100271.25
2022-12-04T10:42:26.720Z,100238.53
2022-12-04T10:44:56.727Z,100263.03
2022-12-04T10:47:25.797Z,100235.69
2022-12-04T10:50:06.912Z,100267.88
2022-12-04T10:52:35.966Z,100257.97
2022-12-04T10:55:04.409Z,100270.47
2022-12-04T10:57:40.868Z,100265.19
2022-12-04T11:00:26.991Z,100238.81
2022-12-04T11:02:56.601Z,100226.94
2022-12-04T11:05:28.034Z,100236.00
2022-12-04T11:07:57.372Z,100232.25
2022-12-04T11:10:31.940Z,100235.56
2022-12-04T11:13:03.112Z,100236.34
2022-12-04T11:15:35.767Z,100229.50
2022-12-04T11:18:19.314Z,100224.50
2022-12-04T11:20:54.595Z,100210.53
2022-12-04T11:23:23.415Z,100212.59
2022-12-04T11:25:53.795Z,100180.16
2022-12-04T11:28:41.238Z,100201.50
2022-12-04T11:31:18.377Z,100170.00
2022-12-04T11:33:49.442Z,100195.47
2022-12-04T11:36:21.970Z,100217.88
2022-12-04T11:38:52.052Z,100209.19
2022-12-04T11:41:28.725Z,100185.84
2022-12-04T11:44:00.737Z,100200.34
2022-12-04T11:46:32.668Z,100186.66
2022-12-04T11:49:03.035Z,100192.91
2022-12-04T11:51:44.319Z,100169.19
2022-12-04T11:54:24.870Z,100188.91
2022-12-04T11:57:04.784Z,100184.16
2022-12-04T11:59:48.035Z,100190.03
2022-12-04T12:02:35.211Z,100198.69
2022-12-04T12:05:43.965Z,100192.19
2022-12-04T12:08:22.126Z,100193.56
2022-12-04T12:10:59.759Z,100190.47
2022-12-04T12:13:35.762Z,100203.28
2022-12-04T12:16:10.909Z,100201.84
2022-12-04T12:19:09.540Z,100192.06
2022-12-04T12:21:54.536Z,100184.81
2022-12-04T12:24:28.179Z,100201.63
2022-12-04T12:27:11.390Z,100209.91
2022-12-04T12:29:51.524Z,100218.56
2022-12-04T12:32:31.433Z,100220.13
2022-12-04T12:35:02.077Z,100195.25
2022-12-04T12:37:39.369Z,100220.06
2022-12-04T12:40:14.278Z,100218.91
2022-12-04T12:42:55.043Z,100221.16
2022-12-04T12:45:31.991Z,100217.72
2022-12-04T12:48:06.455Z,100217.91
2022-12-04T12:50:43.501Z,100213.31
2022-12-04T12:53:16.457Z,100209.19
2022-12-04T12:55:48.882Z,100210.09
2022-12-04T12:58:20.056Z,100225.31
2022-12-04T13:01:00.731Z,100215.22
2022-12-04T13:03:39.890Z,100225.06
2022-12-04T13:06:17.076Z,100222.31
2022-12-04T13:08:58.141Z,100210.50
2022-12-04T13:11:31.210Z,100189.38
2022-12-04T13:14:04.603Z,100199.44
2022-12-04T13:16:45.357Z,100191.94
2022-12-04T13:19:23.785Z,100190.34
2022-12-04T13:25:48.848Z,100184.31
2022-12-04T13:28:31.511Z,100179.84
2022-12-04T13:31:11.255Z,100178.78
2022-12-04T13:33:53.374Z,100180.88
2022-12-04T13:36:38.342Z,100161.75
2022-12-04T13:39:29.526Z,100143.09
2022-12-04T13:41:59.730Z,100148.81
2022-12-04T13:44:37.029Z,100152.06
2022-12-04T13:47:18.096Z,100137.19
2022-12-04T13:49:46.174Z,100162.00
2022-12-04T13:52:24.272Z,100153.31
2022-12-04T13:55:00.199Z,100152.25
2022-12-04T13:57:29.638Z,100160.31
2022-12-04T14:00:28.943Z,100159.22
2022-12-04T14:03:01.906Z,100152.47
2022-12-04T14:05:42.759Z,100078.88
2022-12-04T14:08:27.781Z,100072.50
2022-12-04T14:11:04.559Z,100104.47
2022-12-04T14:13:45.420Z,100088.00
2022-12-04T14:16:22.059Z,100113.56
2022-12-04T14:18:52.319Z,100144.66
2022-12-04T14:21:20.707Z,100135.09
2022-12-04T14:23:49.157Z,100157.31
2022-12-04T14:26:29.315Z,100150.22
2022-12-04T14:29:34.184Z,100141.13
2022-12-04T14:32:10.799Z,100152.53
2022-12-04T14:34:39.737Z,100141.81
2022-12-04T14:37:08.288Z,100160.72
2022-12-04T14:39:41.793Z,100155.53
2022-12-04T14:42:17.416Z,100171.13
2022-12-04T14:44:52.677Z,100169.94
2022-12-04T14:47:31.785Z,100176.50
2022-12-04T14:50:14.503Z,100169.53
2022-12-04T14:52:50.923Z,100177.34
2022-12-04T14:55:28.015Z,100173.75
2022-12-04T14:58:21.841Z,100189.16
2022-12-04T15:00:54.482Z,100180.88
2022-12-04T15:03:23.190Z,100172.63
2022-12-04T15:05:51.879Z,100182.09
2022-12-04T15:08:20.418Z,100177.00
2022-12-04T15:11:08.738Z,100169.19
2022-12-04T15:13:39.840Z,100171.38
2022-12-04T15:16:17.066Z,100181.81
2022-12-04T15:18:54.973Z,100162.44
2022-12-04T15:21:23.483Z,100187.38
2022-12-04T15:23:51.626Z,100175.19
2022-12-04T15:26:21.731Z,100181.41
2022-12-04T15:28:53.894Z,100182.94
2022-12-04T15:31:24.851Z,100181.16
2022-12-04T15:33:56.878Z,100179.56
2022-12-04T15:36:40.759Z,100186.06
2022-12-04T15:39:08.860Z,100191.31
2022-12-04T15:41:38.285Z,100198.75
2022-12-04T15:44:28.577Z,100194.88
2022-12-04T15:46:59.121Z,100186.78
2022-12-04T15:49:29.003Z,100197.47
2022-12-04T15:52:06.593Z,100196.56
2022-12-04T15:54:36.831Z,100201.34
2022-12-04T15:57:07.786Z,100211.94
2022-12-04T15:59:40.927Z,100186.66
2022-12-04T16:02:23.573Z,100171.50
2022-12-04T16:04:51.746Z,100165.53
2022-12-04T16:07:24.413Z,100191.00
2022-12-04T16:10:01.086Z,100206.13
2022-12-04T16:12:33.143Z,100181.88
2022-12-04T16:15:02.436Z,100200.09
2022-12-04T16:17:32.539Z,100195.41
2022-12-04T16:20:01.859Z,100202.09
2022-12-04T16:22:31.477Z,100198.53
2022-12-04T16:24:59.696Z,100208.31
2022-12-04T16:27:28.010Z,100202.66
2022-12-04T16:29:56.170Z,100204.31
2022-12-04T16:32:29.952Z,100203.41
2022-12-04T16:34:58.051Z,100212.38
2022-12-04T16:37:27.793Z,100199.72
2022-12-04T16:39:55.982Z,100210.28
2022-12-04T16:42:26.381Z,100195.06
2022-12-04T16:44:54.566Z,100202.50
2022-12-04T16:47:23.147Z,100177.72
2022-12-04T16:49:53.432Z,100192.03
2022-12-04T16:52:22.024Z,100183.00
2022-12-04T16:54:49.963Z,100189.22
2022-12-04T16:57:17.876Z,100148.34
2022-12-04T16:59:45.996Z,100197.16
2022-12-04T17:02:19.051Z,100181.66
2022-12-04T17:04:48.697Z,100155.28
2022-12-04T17:07:19.717Z,100164.31
2022-12-04T17:09:47.771Z,100169.66
2022-12-04T17:12:15.660Z,100179.00
2022-12-04T17:14:43.735Z,100200.16
2022-12-04T17:17:11.655Z,100197.44
2022-12-04T17:19:39.740Z,100173.78
2022-12-04T17:22:07.992Z,100192.59
2022-12-04T17:24:43.249Z,100184.44
2022-12-04T17:27:25.317Z,100153.91
2022-12-04T17:29:53.250Z,100183.91
2022-12-04T17:32:23.721Z,100169.16
2022-12-04T17:34:54.399Z,100179.94
2022-12-04T17:37:26.620Z,100181.47
2022-12-04T17:39:55.885Z,100186.00
2022-12-04T17:42:24.007Z,100166.69
2022-12-04T17:44:52.139Z,100170.03
2022-12-04T17:47:20.343Z,100161.41
2022-12-04T17:49:48.327Z,100148.97
2022-12-04T17:52:16.509Z,100155.56
2022-12-04T17:54:44.385Z,100145.44
2022-12-04T17:57:13.789Z,100149.28
2022-12-04T18:00:00.261Z,100151.00
2022-12-04T18:02:28.302Z,100136.59
2022-12-04T18:04:56.525Z,100135.38
2022-12-04T18:07:24.576Z,100143.88
2022-12-04T18:09:52.644Z,100150.03
2022-12-04T18:12:23.244Z,100155.31
2022-12-04T18:14:51.183Z,100155.16
2022-12-04T18:17:20.831Z,100146.66
2022-12-04T18:19:48.776Z,100150.69
2022-12-04T18:22:16.695Z,100153.50
2022-12-04T18:24:44.887Z,100168.13
2022-12-04T18:27:12.807Z,100166.00
2022-12-04T18:29:42.234Z,100160.97
2022-12-04T18:32:10.310Z,100172.66
2022-12-04T18:34:38.579Z,100160.84
2022-12-04T18:37:06.578Z,100187.75
2022-12-04T18:39:34.472Z,100193.66
2022-12-04T18:42:02.267Z,100138.03
2022-12-04T18:44:32.126Z,100193.34
2022-12-04T18:47:01.363Z,100181.25
2022-12-04T18:49:29.188Z,100167.06
2022-12-04T18:52:00.233Z,100163.53
2022-12-04T18:54:28.089Z,100164.63
2022-12-04T18:56:56.000Z,100165.34
2022-12-04T18:59:25.817Z,100166.63
2022-12-04T19:01:56.021Z,100173.28
2022-12-04T19:04:26.595Z,100179.59
2022-12-04T19:06:56.898Z,100170.41
2022-12-04T19:09:54.263Z,100175.91
2022-12-04T19:12:15.119Z,100179.53
2022-12-04T19:14:43.402Z,100183.06
2022-12-04T19:17:11.670Z,100172.78
2022-12-04T19:19:41.387Z,100151.31
2022-12-04T19:22:09.210Z,100190.09
2022-12-04T19:24:37.337Z,100200.84
2022-12-04T19:27:11.183Z,100198.09
2022-12-04T19:29:40.061Z,100206.19
2022-12-04T19:32:08.389Z,100193.47
2022-12-04T19:34:36.905Z,100208.50
2022-12-04T19:37:07.424Z,100213.25
2022-12-04T19:39:35.257Z,100217.06
2022-12-04T19:42:03.026Z,100207.06
2022-12-04T19:47:19.707Z,100219.34
2022-12-04T19:49:47.579Z,100207.41
2022-12-04T19:52:17.866Z,100210.53
2022-12-04T19:54:46.438Z,100203.00
2022-12-04T19:57:14.834Z,100171.94
2022-12-04T19:59:46.193Z,100205.44
2022-12-04T20:02:15.028Z,100213.31
2022-12-04T20:04:43.223Z,100213.13
2022-12-04T20:07:11.222Z,100201.06
2022-12-04T20:09:40.791Z,100187.03
2022-12-04T20:12:09.090Z,100210.22
2022-12-04T20:14:37.123Z,100207.16
2022-12-04T20:17:05.521Z,100206.75
2022-12-04T20:19:33.639Z,100218.84
2022-12-04T20:22:03.059Z,100218.56
2022-12-04T20:24:30.959Z,100215.88
2022-12-04T20:27:00.102Z,100196.59
2022-12-04T20:29:28.273Z,100215.09
2022-12-04T20:31:56.216Z,100229.72
2022-12-04T20:34:24.087Z,100233.22
2022-12-04T20:36:52.194Z,100242.66
2022-12-04T20:39:21.073Z,100240.16
2022-12-04T20:41:49.337Z,100243.00
2022-12-04T20:44:20.139Z,100229.53
2022-12-04T20:46:48.999Z,100238.81
2022-12-04T20:49:22.121Z,100230.19
2022-12-04T20:51:52.448Z,100231.38
2022-12-04T20:54:22.135Z,100228.41
2022-12-04T20:56:52.920Z,100235.91
2022-12-04T20:59:24.333Z,100238.59
2022-12-04T21:01:53.208Z,100225.66
2022-12-04T21:04:21.636Z,100226.44
2022-12-04T21:06:49.520Z,100237.25
2022-12-04T21:09:19.776Z,100228.53
2022-12-04T21:11:50.268Z,100244.97
2022-12-04T21:14:37.905Z,100238.19
2022-12-04T21:17:09.550Z,100234.63
2022-12-04T21:19:38.247Z,100230.19
2022-12-04T21:22:06.434Z,100238.91
2022-12-04T21:24:38.421Z,100245.75
2022-12-04T21:27:07.847Z,100251.44
2022-12-04T21:29:36.212Z,100243.91
2022-12-04T21:32:04.796Z,100247.88
2022-12-04T21:34:34.367Z,100243.50
2022-12-04T21:37:02.527Z,100245.84
2022-12-04T21:42:34.458Z,100233.56
2022-12-04T21:45:04.568Z,100250.03
2022-12-04T21:47:32.953Z,100244.06
2022-12-04T21:50:02.285Z,100251.09
2022-12-04T21:52:30.235Z,100260.81
2022-12-04T21:54:58.061Z,100263.06
2022-12-04T21:57:26.190Z,100258.09
2022-12-04T21:59:54.369Z,100253.28
2022-12-04T22:02:22.573Z,100259.16
2022-12-04T22:04:50.447Z,100261.03
2022-12-04T22:07:19.683Z,100268.25
2022-12-04T22:09:47.554Z,100264.09
2022-12-04T22:12:41.261Z,100258.59
2022-12-04T22:15:03.364Z,100261.91
2022-12-04T22:17:31.414Z,100254.97
2022-12-04T22:19:59.678Z,100256.06
2022-12-04T22:22:29.069Z,100260.28
2022-12-04T22:24:56.822Z,100264.13
2022-12-04T22:27:24.688Z,100267.66
2022-12-04T22:29:52.791Z,100259.28
2022-12-04T22:32:21.158Z,100259.78
2022-12-04T22:34:49.510Z,100260.97
2022-12-04T22:37:17.411Z,100257.44
2022-12-04T22:39:46.630Z,100267.56
2022-12-04T22:42:14.464Z,100261.06
2022-12-04T22:44:42.331Z,100265.91
2022-12-04T22:47:10.208Z,100271.25
2022-12-04T22:49:38.199Z,100251.84
2022-12-04T22:52:06.289Z,100267.34
2022-12-04T22:54:34.295Z,100267.09
2022-12-04T22:57:03.494Z,100259.59
2022-12-04T22:59:31.667Z,100258.59
2022-12-04T23:02:00.279Z,100246.31
2022-12-04T23:04:28.476Z,100257.13
2022-12-04T23:06:56.424Z,100263.00
2022-12-04T23:09:25.997Z,100252.06
2022-12-04T23:11:55.273Z,100258.25
2022-12-04T23:14:24.952Z,100261.16
2022-12-04T23:16:52.863Z,100267.34
2022-12-04T23:19:22.349Z,100267.41
2022-12-04T23:21:56.689Z,100261.88
2022-12-04T23:24:35.056Z,100267.78
2022-12-04T23:27:02.862Z,100260.59
2022-12-04T23:32:19.945Z,100267.22
2022-12-04T23:34:47.782Z,100280.09
2022-12-04T23:37:15.900Z,100283.28
2022-12-04T23:39:44.012Z,100274.91
2022-12-04T23:42:11.885Z,100288.97
2022-12-04T23:44:41.092Z,100290.97
2022-12-04T23:47:09.243Z,100279.59
2022-12-04T23:49:37.407Z,100288.47
2022-12-04T23:52:08.314Z,100284.78
2022-12-04T23:54:37.623Z,100294.59
2022-12-04T23:57:05.529Z,100282.84
2022-12-04T23:59:33.414Z,100281.19
